Hartford, Michigan
Current Conditions -  °F | °C
As of 11:35 PM on Friday 24 Oct 2014 (Local Time) from KLWA Reporting Station
Scattered Clouds Scattered Clouds  
Wind Chill: 11°   Ceiling: Unl
Heat Index: 11°   Visibility: 7mi
Dew Point: 10°   Wind: 0mph
Humidity: 90%   Direction: NA
Pressure: 29.94"   Gusts: NA
Location:  42.21°N, 86.17°W
Report Text: KLWA 250335Z AUTO 00000KT 7SM SCT110 11/10 A2994 RMK AO2 T01120096
Loading
Personal Weather Stations






























Interactive Weather Map
Tropical Storm Tracking
New forecast layout! Learn more

10-Day Weather Forecast

Advertisements
Track Severe Weather on mobile